createdAt,value
2019-05-10T00:00:54.945Z,40.56
2019-05-10T00:01:55.027Z,40.16
2019-05-10T00:02:54.916Z,40.53
2019-05-10T00:03:54.921Z,40.64
2019-05-10T00:04:54.902Z,40.44
2019-05-10T00:05:54.882Z,40.53
2019-05-10T00:06:54.876Z,40.53
2019-05-10T00:07:54.929Z,40.45
2019-05-10T00:08:54.887Z,40.14
2019-05-10T00:09:54.876Z,40.53
2019-05-10T00:10:54.830Z,40.53
2019-05-10T00:11:54.832Z,40.53
2019-05-10T00:12:54.815Z,40.64
2019-05-10T00:13:54.803Z,40.44
2019-05-10T00:14:54.819Z,40.56
2019-05-10T00:15:54.777Z,40.56
2019-05-10T00:16:54.779Z,40.83
2019-05-10T00:17:54.749Z,40.36
2019-05-10T00:18:54.758Z,40.14
2019-05-10T00:19:54.721Z,40.25
2019-05-10T00:20:54.724Z,40.16
2019-05-10T00:21:54.721Z,40.14
2019-05-10T00:22:54.704Z,40.04
2019-05-10T00:23:54.679Z,40.66
2019-05-10T00:25:03.951Z,40.06
2019-05-10T00:25:55.672Z,40.66
2019-05-10T00:26:54.646Z,40.64
2019-05-10T00:27:54.900Z,40.36
2019-05-10T00:28:54.625Z,40.66
2019-05-10T00:29:54.625Z,40.14
2019-05-10T00:30:54.625Z,40.16
2019-05-10T00:31:54.591Z,39.95
2019-05-10T00:32:54.615Z,40.06
2019-05-10T00:33:54.572Z,40.14
2019-05-10T00:34:54.556Z,40.14
2019-05-10T00:35:54.565Z,40.53
2019-05-10T00:36:54.544Z,40.25
2019-05-10T00:37:54.531Z,39.94
2019-05-10T00:38:54.523Z,40.86
2019-05-10T00:39:54.501Z,40.36
2019-05-10T00:40:54.498Z,40.86
2019-05-10T00:41:54.478Z,39.95
2019-05-10T00:42:54.490Z,39.94
2019-05-10T00:43:54.465Z,40.25
2019-05-10T00:44:54.445Z,40.44
2019-05-10T00:45:54.440Z,39.74
2019-05-10T00:46:54.421Z,39.84
2019-05-10T00:47:54.416Z,39.43
2019-05-10T00:48:54.443Z,40.04
2019-05-10T00:49:54.389Z,39.65
2019-05-10T00:50:54.384Z,39.95
2019-05-10T00:51:54.385Z,40.04
2019-05-10T00:52:54.356Z,39.56
2019-05-10T00:53:54.352Z,39.95
2019-05-10T00:54:54.373Z,39.36
2019-05-10T00:55:54.383Z,39.65
2019-05-10T00:56:54.314Z,39.54
2019-05-10T00:57:54.308Z,39.46
2019-05-10T00:58:54.289Z,39.46
2019-05-10T00:59:54.281Z,39.43
2019-05-10T01:00:54.266Z,39.56
2019-05-10T01:01:54.270Z,39.54
2019-05-10T01:02:54.257Z,39.46
2019-05-10T01:03:54.243Z,40.06
2019-05-10T01:04:54.239Z,40.16
2019-05-10T01:05:54.213Z,39.65
2019-05-10T01:06:56.387Z,40.06
2019-05-10T01:07:54.188Z,40.45
2019-05-10T01:08:54.177Z,39.65
2019-05-10T01:09:54.176Z,39.46
2019-05-10T01:10:54.180Z,39.36
2019-05-10T01:11:54.158Z,39.56
2019-05-10T01:12:54.141Z,39.06
2019-05-10T01:13:54.132Z,38.85
2019-05-10T01:14:54.119Z,38.66
2019-05-10T01:15:54.097Z,38.66
2019-05-10T01:16:54.100Z,38.66
2019-05-10T01:17:54.085Z,39.06
2019-05-10T01:18:54.073Z,38.96
2019-05-10T01:19:54.194Z,39.36
2019-05-10T01:20:54.043Z,38.85
2019-05-10T01:21:54.058Z,38.85
2019-05-10T01:22:54.047Z,38.85
2019-05-10T01:23:54.024Z,38.85
2019-05-10T01:24:54.000Z,38.96
2019-05-10T01:25:53.988Z,38.96
2019-05-10T01:26:53.987Z,38.96
2019-05-10T01:27:53.980Z,38.85
2019-05-10T01:28:53.957Z,38.66
2019-05-10T01:29:53.974Z,38.87
2019-05-10T01:30:53.937Z,38.76
2019-05-10T01:31:53.935Z,38.66
2019-05-10T01:32:53.925Z,39.46
2019-05-10T01:33:53.908Z,39.15
2019-05-10T01:34:53.890Z,39.36
2019-05-10T01:35:53.903Z,38.96
2019-05-10T01:36:53.897Z,38.96
2019-05-10T01:37:53.862Z,38.96
2019-05-10T01:38:53.855Z,38.96
2019-05-10T01:39:53.851Z,39.06
2019-05-10T01:40:53.838Z,39.36
2019-05-10T01:41:53.811Z,39.06
2019-05-10T01:42:53.816Z,39.06
2019-05-10T01:43:53.863Z,39.15
2019-05-10T01:44:53.782Z,39.06
2019-05-10T01:45:53.775Z,38.96
2019-05-10T01:46:53.774Z,39.06
2019-05-10T01:47:53.748Z,38.85
2019-05-10T01:48:53.738Z,38.96
2019-05-10T01:49:53.731Z,39.26
2019-05-10T01:50:53.710Z,39.26
2019-05-10T01:51:53.724Z,39.06
2019-05-10T01:52:53.721Z,39.26
2019-05-10T01:53:53.726Z,38.96
2019-05-10T01:54:53.688Z,39.26
2019-05-10T01:55:53.745Z,38.85
2019-05-10T01:56:53.643Z,38.76
2019-05-10T01:57:53.652Z,38.76
2019-05-10T01:58:53.619Z,38.66
2019-05-10T01:59:53.608Z,38.85
2019-05-10T02:00:53.598Z,38.85
2019-05-10T02:01:53.593Z,38.85
2019-05-10T02:02:53.598Z,38.85
2019-05-10T02:03:53.592Z,38.85
2019-05-10T02:04:53.561Z,39.06
2019-05-10T02:05:53.540Z,38.85
2019-05-10T02:06:53.535Z,38.85
2019-05-10T02:07:53.589Z,38.66
2019-05-10T02:08:53.521Z,38.85
2019-05-10T02:09:53.507Z,38.76
2019-05-10T02:10:53.483Z,38.85
2019-05-10T02:11:53.488Z,39.06
2019-05-10T02:12:53.477Z,38.66
2019-05-10T02:13:53.465Z,38.66
2019-05-10T02:14:53.454Z,38.85
2019-05-10T02:15:53.447Z,39.06
2019-05-10T02:16:53.427Z,38.85
2019-05-10T02:17:53.434Z,38.66
2019-05-10T02:18:53.428Z,38.76
2019-05-10T02:19:53.390Z,39.06
2019-05-10T02:20:53.397Z,39.06
2019-05-10T02:21:53.402Z,38.96
2019-05-10T02:22:53.365Z,38.96
2019-05-10T02:23:53.373Z,39.15
2019-05-10T02:24:53.329Z,38.66
2019-05-10T02:26:08.509Z,39.06
2019-05-10T02:26:54.330Z,38.96
2019-05-10T02:27:53.305Z,38.85
2019-05-10T02:28:53.288Z,38.85
2019-05-10T02:29:53.290Z,38.85
2019-05-10T02:30:53.261Z,38.36
2019-05-10T02:31:53.264Z,39.06
2019-05-10T02:32:53.261Z,38.66
2019-05-10T02:33:53.235Z,38.85
2019-05-10T02:34:53.222Z,38.85
2019-05-10T02:35:53.227Z,39.06
2019-05-10T02:36:53.191Z,38.85
2019-05-10T02:37:53.245Z,38.85
2019-05-10T02:38:53.181Z,39.26
2019-05-10T02:39:53.159Z,38.76
2019-05-10T02:40:53.163Z,39.06
2019-05-10T02:41:53.136Z,39.06
2019-05-10T02:42:53.129Z,39.26
2019-05-10T02:43:53.148Z,39.06
2019-05-10T02:44:53.123Z,38.28
2019-05-10T02:45:53.105Z,38.36
2019-05-10T02:46:53.084Z,38.56
2019-05-10T02:47:53.074Z,38.38
2019-05-10T02:48:53.169Z,38.46
2019-05-10T02:49:53.053Z,38.56
2019-05-10T02:50:53.042Z,38.56
2019-05-10T02:51:53.039Z,38.46
2019-05-10T02:52:53.026Z,38.36
2019-05-10T02:53:53.051Z,38.56
2019-05-10T02:54:53.010Z,38.46
2019-05-10T02:55:52.997Z,38.85
2019-05-10T02:56:52.969Z,38.56
2019-05-10T02:57:53.021Z,38.57
2019-05-10T02:58:52.960Z,38.66
2019-05-10T02:59:52.940Z,38.46
2019-05-10T03:00:52.937Z,38.56
2019-05-10T03:01:52.916Z,38.57
2019-05-10T03:02:52.918Z,38.56
2019-05-10T03:03:52.965Z,38.56
2019-05-10T03:04:52.878Z,38.57
2019-05-10T03:05:52.888Z,38.46
2019-05-10T03:06:52.868Z,38.56
2019-05-10T03:07:52.850Z,38.48
2019-05-10T03:08:52.835Z,38.28
2019-05-10T03:09:52.847Z,38.38
2019-05-10T03:10:52.818Z,38.26
2019-05-10T03:11:52.809Z,38.48
2019-05-10T03:12:52.809Z,38.48
2019-05-10T03:13:52.828Z,38.28
2019-05-10T03:14:52.788Z,38.36
2019-05-10T03:15:52.759Z,38.57
2019-05-10T03:16:52.750Z,38.56
2019-05-10T03:17:52.749Z,38.57
2019-05-10T03:18:52.745Z,38.16
2019-05-10T03:19:52.732Z,38.56
2019-05-10T03:20:52.736Z,38.18
2019-05-10T03:21:52.694Z,38.56
2019-05-10T03:22:52.687Z,38.46
2019-05-10T03:23:52.680Z,38.36
2019-05-10T03:24:52.680Z,38.36
2019-05-10T03:25:52.649Z,38.36
2019-05-10T03:26:52.647Z,38.16
2019-05-10T03:27:52.640Z,38.57
2019-05-10T03:28:52.633Z,38.57
2019-05-10T03:29:52.617Z,38.56
2019-05-10T03:30:52.603Z,38.36
2019-05-10T03:31:52.606Z,38.56
2019-05-10T03:32:52.580Z,38.48
2019-05-10T03:33:56.434Z,38.46
2019-05-10T03:34:53.577Z,38.57
2019-05-10T03:35:52.540Z,38.76
2019-05-10T03:36:52.532Z,38.68
2019-05-10T03:37:52.518Z,38.18
2019-05-10T03:38:52.511Z,38.26
2019-05-10T03:39:52.508Z,38.18
2019-05-10T03:40:52.498Z,38.16
2019-05-10T03:41:52.479Z,38.56
2019-05-10T03:42:52.484Z,38.46
2019-05-10T03:43:52.457Z,38.66
2019-05-10T03:44:52.449Z,38.16
2019-05-10T03:45:52.449Z,38.16
2019-05-10T03:46:52.425Z,38.48
2019-05-10T03:47:52.667Z,37.76
2019-05-10T03:48:52.419Z,37.77
2019-05-10T03:49:52.403Z,37.77
2019-05-10T03:50:52.379Z,37.76
2019-05-10T03:51:52.370Z,37.76
2019-05-10T03:52:52.824Z,37.76
2019-05-10T03:53:52.346Z,37.77
2019-05-10T03:54:52.341Z,37.76
2019-05-10T03:55:52.337Z,37.77
2019-05-10T03:57:10.928Z,37.76
2019-05-10T03:57:53.368Z,37.77
2019-05-10T03:58:52.281Z,38.06
2019-05-10T03:59:52.304Z,37.76
2019-05-10T04:00:52.283Z,37.98
2019-05-10T04:01:52.258Z,37.96
2019-05-10T04:02:52.241Z,38.07
2019-05-10T04:03:52.229Z,38.07
2019-05-10T04:04:52.223Z,38.46
2019-05-10T04:05:52.212Z,38.06
2019-05-10T04:06:52.206Z,38.16
2019-05-10T04:07:52.194Z,37.77
2019-05-10T04:08:52.175Z,37.76
2019-05-10T04:09:52.192Z,37.77
2019-05-10T04:10:52.188Z,37.68
2019-05-10T04:11:52.139Z,37.86
2019-05-10T04:12:52.131Z,37.98
2019-05-10T04:13:52.125Z,37.77
2019-05-10T04:14:52.131Z,37.76
2019-05-10T04:15:52.091Z,37.76
2019-05-10T04:16:52.109Z,38.16
2019-05-10T04:17:52.096Z,38.28
2019-05-10T04:18:52.057Z,38.26
2019-05-10T04:19:52.059Z,37.96
2019-05-10T04:20:52.065Z,37.76
2019-05-10T04:21:52.032Z,38.26
2019-05-10T04:22:52.043Z,38.36
2019-05-10T04:23:52.007Z,38.26
2019-05-10T04:24:52.000Z,38.36
2019-05-10T04:25:51.994Z,38.26
2019-05-10T04:26:51.986Z,37.98
2019-05-10T04:27:51.974Z,38.36
2019-05-10T04:28:51.955Z,38.18
2019-05-10T04:29:51.941Z,37.76
2019-05-10T04:30:51.942Z,37.76
2019-05-10T04:31:51.930Z,37.76
2019-05-10T04:32:51.907Z,37.77
2019-05-10T04:33:51.902Z,37.77
2019-05-10T04:34:51.892Z,37.76
2019-05-10T04:35:51.880Z,37.77
2019-05-10T04:36:51.889Z,37.66
2019-05-10T04:37:51.868Z,37.76
2019-05-10T04:38:51.848Z,37.76
2019-05-10T04:39:51.833Z,37.77
2019-05-10T04:40:51.838Z,37.77
2019-05-10T04:41:51.806Z,37.76
2019-05-10T04:42:51.802Z,37.77
2019-05-10T04:43:51.807Z,37.77
2019-05-10T04:44:53.471Z,37.76
2019-05-10T04:45:51.773Z,37.76
2019-05-10T04:46:51.761Z,37.98
2019-05-10T04:47:51.748Z,37.77
2019-05-10T04:48:51.752Z,37.98
2019-05-10T04:49:51.728Z,37.98
2019-05-10T04:50:51.720Z,38.18
2019-05-10T04:51:51.697Z,37.76
2019-05-10T04:52:51.695Z,37.76
2019-05-10T04:53:51.683Z,37.77
2019-05-10T04:54:51.668Z,37.76
2019-05-10T04:55:51.669Z,37.68
2019-05-10T04:56:51.648Z,37.76
2019-05-10T04:57:51.626Z,37.76
2019-05-10T04:58:51.624Z,37.76
2019-05-10T04:59:51.621Z,37.96
2019-05-10T05:00:51.607Z,38.56
2019-05-10T05:01:51.613Z,37.96
2019-05-10T05:02:51.584Z,38.16
2019-05-10T05:03:51.571Z,38.28
2019-05-10T05:04:51.563Z,38.18
2019-05-10T05:05:51.562Z,38.48
2019-05-10T05:06:51.545Z,38.48
2019-05-10T05:07:51.526Z,38.38
2019-05-10T05:08:51.570Z,38.48
2019-05-10T05:09:51.510Z,38.48
2019-05-10T05:10:51.515Z,38.48
2019-05-10T05:11:51.473Z,38.38
2019-05-10T05:12:51.482Z,38.28
2019-05-10T05:13:51.502Z,38.28
2019-05-10T05:14:51.463Z,38.68
2019-05-10T05:15:51.478Z,38.57
2019-05-10T05:16:51.426Z,38.18
2019-05-10T05:17:51.406Z,38.38
2019-05-10T05:18:51.399Z,38.38
2019-05-10T05:19:51.405Z,38.68
2019-05-10T05:20:51.377Z,38.48
2019-05-10T05:21:51.392Z,38.57
2019-05-10T05:22:51.348Z,38.48
2019-05-10T05:23:51.347Z,38.57
2019-05-10T05:24:55.108Z,38.57
2019-05-10T05:25:52.327Z,38.57
2019-05-10T05:26:51.310Z,38.57
2019-05-10T05:28:06.686Z,38.38
2019-05-10T05:28:52.290Z,38.38
2019-05-10T05:29:51.275Z,38.28
2019-05-10T05:30:51.283Z,38.28
2019-05-10T05:31:53.938Z,38.38
2019-05-10T05:32:52.239Z,38.68
2019-05-10T05:33:51.238Z,38.87
2019-05-10T05:34:51.211Z,38.38
2019-05-10T05:35:51.202Z,38.87
2019-05-10T05:36:51.260Z,38.68
2019-05-10T05:37:51.176Z,38.87
2019-05-10T05:38:51.170Z,38.87
2019-05-10T05:39:51.157Z,38.18
2019-05-10T05:40:51.146Z,38.87
2019-05-10T05:41:52.194Z,38.87
2019-05-10T05:42:51.135Z,38.87
2019-05-10T05:43:51.119Z,38.28
2019-05-10T05:44:51.122Z,38.78
2019-05-10T05:45:51.109Z,39.18
2019-05-10T05:46:51.086Z,38.68
2019-05-10T05:47:51.106Z,38.87
2019-05-10T05:48:51.661Z,39.07
2019-05-10T05:49:51.061Z,38.87
2019-05-10T05:50:51.037Z,38.78
2019-05-10T05:51:51.024Z,38.87
2019-05-10T05:52:51.034Z,38.87
2019-05-10T05:53:51.050Z,39.07
2019-05-10T05:54:52.834Z,39.07
2019-05-10T05:55:51.977Z,38.98
2019-05-10T05:56:53.066Z,38.98
2019-05-10T05:57:50.988Z,39.07
2019-05-10T05:58:50.965Z,39.07
2019-05-10T05:59:50.941Z,38.98
2019-05-10T06:00:50.937Z,39.07
2019-05-10T06:01:50.930Z,39.18
2019-05-10T06:02:50.929Z,39.07
2019-05-10T06:03:50.899Z,39.07
2019-05-10T06:04:50.891Z,38.98
2019-05-10T06:05:50.885Z,38.98
2019-05-10T06:06:53.601Z,38.98
2019-05-10T06:07:52.505Z,38.98
2019-05-10T06:08:54.428Z,39.18
2019-05-10T06:09:51.846Z,39.15
2019-05-10T06:10:57.897Z,38.96
2019-05-10T06:11:51.799Z,38.96
2019-05-10T06:12:52.894Z,38.85
2019-05-10T06:13:50.821Z,38.76
2019-05-10T06:14:52.391Z,39.26
2019-05-10T06:15:50.764Z,38.85
2019-05-10T06:16:52.944Z,38.57
2019-05-10T06:17:56.467Z,38.98
2019-05-10T06:18:51.731Z,39.00
2019-05-10T06:19:50.723Z,39.59
2019-05-10T06:20:50.718Z,39.69
2019-05-10T06:21:50.698Z,39.50
2019-05-10T06:23:05.812Z,39.79
2019-05-10T06:23:51.677Z,40.19
2019-05-10T06:24:52.405Z,39.59
2019-05-10T06:25:50.658Z,39.79
2019-05-10T06:26:50.654Z,40.30
2019-05-10T06:27:50.629Z,39.79
2019-05-10T06:29:03.319Z,39.59
2019-05-10T06:29:51.614Z,39.69
2019-05-10T06:30:50.606Z,39.87
2019-05-10T06:31:50.578Z,39.58
2019-05-10T06:32:53.233Z,39.48
2019-05-10T06:33:51.565Z,39.48
2019-05-10T06:34:50.568Z,39.67
2019-05-10T06:35:50.538Z,38.98
2019-05-10T06:36:50.531Z,38.87
2019-05-10T06:37:50.517Z,38.98
2019-05-10T06:38:50.510Z,38.85
2019-05-10T06:39:50.504Z,38.66
2019-05-10T06:40:50.511Z,38.66
2019-05-10T06:41:55.978Z,38.66
2019-05-10T06:42:51.470Z,39.36
2019-05-10T06:43:51.528Z,38.76
2019-05-10T06:44:50.444Z,39.06
2019-05-10T06:45:52.323Z,39.06
2019-05-10T06:46:50.431Z,38.84
2019-05-10T06:47:53.495Z,39.06
2019-05-10T06:48:50.418Z,38.66
2019-05-10T06:49:52.333Z,38.94
2019-05-10T06:50:50.386Z,39.24
2019-05-10T06:51:51.052Z,38.94
2019-05-10T06:52:52.181Z,39.04
2019-05-10T06:53:53.567Z,39.34
2019-05-10T06:54:50.324Z,40.04
2019-05-10T06:55:50.325Z,39.84
2019-05-10T06:56:50.313Z,39.64
2019-05-10T06:57:58.861Z,39.34
2019-05-10T06:58:51.306Z,39.64
2019-05-10T06:59:50.289Z,38.84
2019-05-10T07:00:50.262Z,39.34
2019-05-10T07:01:52.149Z,40.23
2019-05-10T07:02:51.051Z,39.64
2019-05-10T07:03:50.243Z,39.43
2019-05-10T07:04:51.028Z,39.54
2019-05-10T07:05:50.221Z,39.54
2019-05-10T07:06:50.195Z,39.64
2019-05-10T07:07:50.201Z,39.64
2019-05-10T07:08:51.680Z,39.54
2019-05-10T07:10:15.721Z,39.52
2019-05-10T07:10:51.157Z,39.52
2019-05-10T07:11:50.150Z,39.62
2019-05-10T07:12:50.173Z,39.34
2019-05-10T07:13:53.032Z,39.52
2019-05-10T07:14:50.118Z,39.52
2019-05-10T07:15:50.138Z,39.42
2019-05-10T07:16:50.093Z,39.32
2019-05-10T07:17:50.119Z,38.92
2019-05-10T07:18:54.882Z,39.22
2019-05-10T07:19:54.917Z,39.22
2019-05-10T07:20:50.081Z,38.72
2019-05-10T07:21:51.254Z,40.12
2019-05-10T07:22:50.032Z,39.32
2019-05-10T07:23:50.029Z,38.82
2019-05-10T07:24:50.009Z,38.92
2019-05-10T07:25:49.997Z,39.32
2019-05-10T07:26:50.002Z,39.62
2019-05-10T07:27:50.545Z,39.62
2019-05-10T07:28:51.807Z,39.72
2019-05-10T07:29:50.941Z,39.52
2019-05-10T07:30:50.000Z,38.80
2019-05-10T07:31:49.940Z,39.50
2019-05-10T07:32:54.632Z,39.92
2019-05-10T07:33:50.902Z,39.50
2019-05-10T07:34:58.959Z,39.30
2019-05-10T07:35:50.878Z,39.60
2019-05-10T07:36:49.878Z,39.60
2019-05-10T07:37:51.759Z,39.50
2019-05-10T07:38:49.847Z,39.80
2019-05-10T07:39:49.859Z,39.50
2019-05-10T07:40:49.825Z,39.70
2019-05-10T07:41:49.830Z,40.10
2019-05-10T07:42:49.800Z,39.90
2019-05-10T07:43:49.796Z,39.60
2019-05-10T07:44:49.779Z,39.60
2019-05-10T07:45:49.782Z,39.50
2019-05-10T07:46:54.245Z,39.60
2019-05-10T07:47:50.741Z,39.60
2019-05-10T07:48:53.311Z,39.60
2019-05-10T07:49:49.721Z,39.50
2019-05-10T07:50:51.922Z,39.40
2019-05-10T07:51:49.729Z,39.60
2019-05-10T07:52:49.690Z,39.60
2019-05-10T07:53:49.678Z,39.70
2019-05-10T07:54:49.672Z,39.40
2019-05-10T07:55:49.659Z,38.80
2019-05-10T07:56:49.651Z,38.70
2019-05-10T07:57:49.656Z,38.90
2019-05-10T07:58:49.643Z,39.40
2019-05-10T07:59:51.020Z,39.50
2019-05-10T08:00:49.622Z,38.80
2019-05-10T08:01:49.600Z,39.40
2019-05-10T08:02:55.742Z,39.40
2019-05-10T08:03:52.477Z,39.80
2019-05-10T08:04:53.319Z,38.60
2019-05-10T08:05:55.071Z,39.30
2019-05-10T08:06:52.088Z,39.10
2019-05-10T08:07:49.684Z,38.90
2019-05-10T08:08:49.819Z,38.80
2019-05-10T08:09:49.514Z,39.28
2019-05-10T08:10:49.512Z,39.38
2019-05-10T08:11:54.163Z,39.70
2019-05-10T08:12:49.469Z,39.48
2019-05-10T08:13:49.460Z,39.68
2019-05-10T08:14:53.379Z,40.30
2019-05-10T08:15:49.447Z,39.68
2019-05-10T08:16:58.167Z,39.58
2019-05-10T08:17:50.979Z,39.48
2019-05-10T08:18:49.910Z,39.48
2019-05-10T08:19:49.403Z,39.48
2019-05-10T08:20:55.119Z,39.60
2019-05-10T08:21:56.531Z,39.28
2019-05-10T08:22:52.397Z,39.38
2019-05-10T08:23:49.351Z,39.48
2019-05-10T08:24:52.914Z,39.48
2019-05-10T08:25:53.100Z,39.28
2019-05-10T08:26:49.315Z,38.89
2019-05-10T08:27:54.991Z,38.98
2019-05-10T08:28:52.414Z,39.28
2019-05-10T08:29:52.939Z,39.58
2019-05-10T08:30:53.666Z,39.48
2019-05-10T08:31:53.606Z,39.38
2019-05-10T08:32:52.443Z,39.58
2019-05-10T08:33:56.329Z,39.58
2019-05-10T08:34:53.073Z,39.46
2019-05-10T08:35:52.538Z,39.48
2019-05-10T08:36:51.993Z,39.46
2019-05-10T08:37:49.210Z,39.48
2019-05-10T08:39:02.430Z,39.46
2019-05-10T08:39:55.615Z,39.38
2019-05-10T08:40:52.456Z,38.78
2019-05-10T08:42:01.367Z,38.76
2019-05-10T08:43:03.186Z,38.76
2019-05-10T08:43:52.394Z,38.68
2019-05-10T08:44:53.648Z,38.56
2019-05-10T08:45:52.375Z,39.38
2019-05-10T08:46:49.097Z,38.78
2019-05-10T08:47:52.818Z,39.40
2019-05-10T08:48:51.361Z,40.20
2019-05-10T08:49:59.505Z,39.90
2019-05-10T08:50:56.923Z,40.81
2019-05-10T08:51:52.108Z,40.81
2019-05-10T08:52:49.033Z,40.10
2019-05-10T08:53:53.489Z,40.72
2019-05-10T08:54:50.025Z,40.40
2019-05-10T08:55:49.004Z,40.70
2019-05-10T08:56:55.023Z,40.89
2019-05-10T08:57:52.336Z,40.70
2019-05-10T08:58:48.984Z,40.59
2019-05-10T08:59:54.245Z,40.50
2019-05-10T09:01:01.484Z,40.40
2019-05-10T09:01:50.837Z,40.59
2019-05-10T09:02:48.946Z,40.10
2019-05-10T09:03:55.047Z,40.50
2019-05-10T09:04:50.315Z,40.30
2019-05-10T09:05:48.894Z,40.48
2019-05-10T09:06:55.374Z,40.18
2019-05-10T09:07:52.053Z,40.08
2019-05-10T09:08:55.331Z,40.18
2019-05-10T09:09:50.747Z,40.10
2019-05-10T09:10:48.840Z,40.48
2019-05-10T09:11:48.845Z,40.28
2019-05-10T09:12:53.682Z,39.98
2019-05-10T09:13:49.799Z,40.18
2019-05-10T09:14:49.005Z,40.18
2019-05-10T09:15:56.092Z,39.98
2019-05-10T09:16:59.713Z,39.88
2019-05-10T09:17:49.772Z,39.28
2019-05-10T09:18:51.135Z,39.46
2019-05-10T09:19:48.743Z,38.78
2019-05-10T09:20:48.752Z,38.86
2019-05-10T09:21:50.069Z,39.48
2019-05-10T09:22:48.703Z,39.68
2019-05-10T09:23:52.782Z,40.28
2019-05-10T09:24:50.079Z,40.38
2019-05-10T09:25:48.704Z,39.66
2019-05-10T09:26:54.775Z,40.38
2019-05-10T09:27:49.651Z,40.56
2019-05-10T09:28:55.552Z,40.46
2019-05-10T09:29:49.639Z,39.68
2019-05-10T09:30:57.561Z,40.08
2019-05-10T09:31:52.835Z,40.06
2019-05-10T09:32:48.614Z,39.96
2019-05-10T09:33:49.551Z,39.96
2019-05-10T09:34:48.630Z,39.66
2019-05-10T09:35:52.371Z,40.16
2019-05-10T09:36:49.606Z,39.76
2019-05-10T09:37:54.057Z,39.76
2019-05-10T09:38:49.522Z,40.16
2019-05-10T09:39:55.380Z,40.06
2019-05-10T09:40:52.739Z,40.56
2019-05-10T09:41:52.493Z,39.96
2019-05-10T09:42:48.511Z,39.86
2019-05-10T09:43:50.360Z,39.76
2019-05-10T09:44:48.472Z,40.36
2019-05-10T09:45:48.530Z,39.76
2019-05-10T09:46:48.455Z,40.16
2019-05-10T09:47:48.437Z,40.26
2019-05-10T09:48:48.432Z,39.96
2019-05-10T09:49:54.043Z,39.94
2019-05-10T09:50:49.441Z,39.96
2019-05-10T09:51:48.400Z,39.96
2019-05-10T09:52:48.398Z,39.84
2019-05-10T09:53:48.695Z,40.16
2019-05-10T09:54:49.570Z,40.36
2019-05-10T09:55:55.128Z,40.06
2019-05-10T09:56:52.248Z,40.06
2019-05-10T09:57:48.319Z,40.14
2019-05-10T09:58:48.648Z,40.16
2019-05-10T09:59:48.307Z,39.44
2019-05-10T10:00:48.645Z,39.26
2019-05-10T10:01:48.525Z,39.26
2019-05-10T10:02:56.407Z,39.56
2019-05-10T10:03:49.271Z,39.46
2019-05-10T10:04:48.236Z,39.76
2019-05-10T10:05:48.480Z,39.46
2019-05-10T10:06:52.696Z,39.54
2019-05-10T10:07:48.262Z,38.65
2019-05-10T10:08:51.864Z,39.25
2019-05-10T10:09:49.198Z,38.75
2019-05-10T10:10:48.173Z,39.16
2019-05-10T10:11:57.960Z,39.06
2019-05-10T10:12:49.195Z,38.46
2019-05-10T10:13:51.918Z,38.76
2019-05-10T10:14:49.131Z,38.48
2019-05-10T10:15:51.966Z,38.68
2019-05-10T10:16:57.825Z,38.98
2019-05-10T10:17:49.095Z,38.68
2019-05-10T10:18:48.082Z,38.78
2019-05-10T10:19:48.217Z,38.98
2019-05-10T10:20:48.265Z,38.90
2019-05-10T10:21:48.060Z,38.70
2019-05-10T10:22:49.779Z,39.50
2019-05-10T10:23:49.032Z,39.50
2019-05-10T10:24:49.050Z,39.00
2019-05-10T10:25:49.016Z,39.30
2019-05-10T10:26:48.288Z,38.90
2019-05-10T10:27:48.182Z,39.40
2019-05-10T10:28:49.672Z,39.50
2019-05-10T10:29:48.976Z,39.72
2019-05-10T10:30:52.747Z,40.10
2019-05-10T10:31:55.270Z,39.30
2019-05-10T10:32:48.944Z,39.90
2019-05-10T10:33:54.832Z,40.12
2019-05-10T10:34:54.101Z,39.70
2019-05-10T10:35:48.895Z,40.10
2019-05-10T10:36:47.904Z,39.90
2019-05-10T10:37:47.869Z,39.90
2019-05-10T10:38:49.607Z,39.30
2019-05-10T10:39:47.860Z,39.50
2019-05-10T10:40:47.850Z,39.30
2019-05-10T10:41:49.187Z,39.70
2019-05-10T10:42:47.822Z,39.40
2019-05-10T10:43:48.612Z,39.90
2019-05-10T10:44:48.400Z,39.50
2019-05-10T10:45:47.785Z,39.60
2019-05-10T10:46:48.138Z,39.62
2019-05-10T10:47:47.812Z,39.32
2019-05-10T10:48:49.136Z,39.60
2019-05-10T10:49:47.743Z,39.50
2019-05-10T10:50:53.880Z,40.00
2019-05-10T10:51:48.730Z,40.10
2019-05-10T10:52:47.719Z,40.00
2019-05-10T10:53:47.726Z,40.20
2019-05-10T10:54:48.027Z,40.20
2019-05-10T10:55:54.050Z,40.00
2019-05-10T10:56:48.664Z,39.80
2019-05-10T10:57:48.199Z,40.20
2019-05-10T10:58:49.923Z,40.22
2019-05-10T10:59:47.641Z,39.90
2019-05-10T11:00:48.236Z,39.72
2019-05-10T11:01:56.610Z,39.52
2019-05-10T11:02:52.130Z,40.12
2019-05-10T11:03:49.095Z,39.72
2019-05-10T11:04:48.973Z,39.82
2019-05-10T11:05:47.583Z,39.62
2019-05-10T11:06:47.553Z,39.52
2019-05-10T11:07:47.979Z,39.72
2019-05-10T11:08:47.550Z,39.62
2019-05-10T11:09:47.534Z,38.84
2019-05-10T11:10:47.507Z,38.74
2019-05-10T11:11:47.520Z,38.62
2019-05-10T11:12:47.501Z,38.82
2019-05-10T11:13:57.537Z,39.42
2019-05-10T11:14:48.470Z,38.64
2019-05-10T11:15:47.470Z,38.74
2019-05-10T11:16:52.999Z,39.14
2019-05-10T11:17:50.539Z,39.54
2019-05-10T11:18:47.426Z,39.24
2019-05-10T11:19:47.418Z,39.54
2019-05-10T11:20:49.456Z,39.43
2019-05-10T11:21:47.397Z,39.64
2019-05-10T11:22:49.808Z,39.54
2019-05-10T11:23:48.364Z,39.72
2019-05-10T11:24:51.758Z,39.32
2019-05-10T11:25:51.480Z,39.74
2019-05-10T11:26:48.341Z,40.01
2019-05-10T11:27:47.602Z,39.72
2019-05-10T11:28:48.330Z,40.12
2019-05-10T11:29:47.300Z,39.92
2019-05-10T11:30:47.294Z,39.64
2019-05-10T11:31:50.167Z,40.12
2019-05-10T11:32:48.282Z,39.42
2019-05-10T11:33:53.813Z,39.32
2019-05-10T11:34:48.261Z,39.42
2019-05-10T11:35:47.235Z,39.32
2019-05-10T11:36:48.335Z,38.82
2019-05-10T11:37:47.224Z,39.52
2019-05-10T11:38:56.906Z,39.72
2019-05-10T11:39:50.349Z,39.42
2019-05-10T11:40:47.186Z,39.52
2019-05-10T11:41:52.942Z,39.72
2019-05-10T11:42:48.176Z,39.32
2019-05-10T11:43:47.164Z,39.52
2019-05-10T11:44:54.306Z,39.72
2019-05-10T11:45:48.131Z,39.92
2019-05-10T11:46:47.120Z,39.72
2019-05-10T11:47:48.222Z,39.52
2019-05-10T11:48:48.128Z,40.32
2019-05-10T11:49:47.093Z,40.22
2019-05-10T11:50:47.069Z,40.22
2019-05-10T11:51:47.963Z,39.62
2019-05-10T11:52:51.045Z,39.62
2019-05-10T11:53:49.112Z,39.62
2019-05-10T11:54:48.047Z,39.22
2019-05-10T11:55:47.029Z,39.72
2019-05-10T11:56:47.018Z,39.42
2019-05-10T11:58:00.105Z,39.72
2019-05-10T11:58:54.970Z,39.72
2019-05-10T11:59:47.984Z,40.42
2019-05-10T12:00:46.976Z,39.92
2019-05-10T12:01:54.808Z,39.92
2019-05-10T12:03:06.678Z,40.52
2019-05-10T12:03:47.944Z,40.72
2019-05-10T12:04:46.932Z,40.22
2019-05-10T12:05:53.209Z,40.92
2019-05-10T12:06:50.383Z,40.32
2019-05-10T12:07:46.891Z,40.72
2019-05-10T12:08:46.940Z,40.52
2019-05-10T12:09:53.365Z,40.12
2019-05-10T12:10:52.790Z,40.20
2019-05-10T12:11:56.664Z,40.10
2019-05-10T12:13:04.857Z,40.81
2019-05-10T12:13:47.821Z,40.00
2019-05-10T12:14:46.897Z,40.10
2019-05-10T12:15:46.807Z,40.12
2019-05-10T12:16:46.791Z,40.00
2019-05-10T12:17:53.624Z,39.92
2019-05-10T12:19:05.548Z,40.10
2019-05-10T12:19:54.909Z,40.10
2019-05-10T12:21:47.735Z,40.00
2019-05-10T12:23:52.008Z,40.50
2019-05-10T12:25:11.367Z,40.00
2019-05-10T12:26:05.557Z,40.01
2019-05-10T12:26:17.620Z,40.30
2019-05-10T12:26:33.770Z,40.00
2019-05-10T12:27:12.697Z,39.90
2019-05-10T12:27:49.059Z,39.90
2019-05-10T12:28:46.664Z,40.20
2019-05-10T12:29:51.836Z,40.10
2019-05-10T12:30:47.627Z,40.20
2019-05-10T12:31:47.445Z,40.10
2019-05-10T12:32:56.536Z,40.59
2019-05-10T12:33:47.601Z,40.20
2019-05-10T12:34:54.186Z,39.30
2019-05-10T12:35:47.663Z,39.60
2019-05-10T12:36:46.573Z,39.70
2019-05-10T12:37:51.402Z,39.60
2019-05-10T12:38:47.568Z,39.60
2019-05-10T12:39:46.541Z,39.80
2019-05-10T12:40:46.531Z,39.70
2019-05-10T12:41:49.782Z,39.70
2019-05-10T12:42:47.502Z,39.50
2019-05-10T12:43:48.457Z,39.30
2019-05-10T12:44:48.234Z,39.50
2019-05-10T12:45:46.492Z,39.50
2019-05-10T12:46:46.457Z,39.70
2019-05-10T12:47:46.442Z,39.50
2019-05-10T12:48:46.465Z,39.00
2019-05-10T12:49:46.444Z,38.70
2019-05-10T12:50:46.410Z,38.80
2019-05-10T12:51:46.416Z,38.80
2019-05-10T12:52:53.555Z,38.70